sensor_id;sensor_type;location;lat;lon;timestamp;P1;durP1;ratioP1;P2;durP2;ratioP2
9102;SDS011;4587;51.434;6.788;2023-11-18T00:01:23;43.63;;;26.60;;
9102;SDS011;4587;51.434;6.788;2023-11-18T00:03:49;46.23;;;26.33;;
9102;SDS011;4587;51.434;6.788;2023-11-18T00:06:14;42.93;;;25.43;;
9102;SDS011;4587;51.434;6.788;2023-11-18T00:08:40;39.60;;;25.20;;
9102;SDS011;4587;51.434;6.788;2023-11-18T00:11:05;45.33;;;25.03;;
9102;SDS011;4587;51.434;6.788;2023-11-18T00:13:31;40.53;;;25.47;;
9102;SDS011;4587;51.434;6.788;2023-11-18T00:15:57;44.10;;;26.00;;
9102;SDS011;4587;51.434;6.788;2023-11-18T00:18:23;45.63;;;25.30;;
9102;SDS011;4587;51.434;6.788;2023-11-18T00:20:48;41.17;;;24.40;;
9102;SDS011;4587;51.434;6.788;2023-11-18T00:23:15;39.27;;;23.90;;
9102;SDS011;4587;51.434;6.788;2023-11-18T00:25:43;41.47;;;24.47;;
9102;SDS011;4587;51.434;6.788;2023-11-18T00:28:10;41.93;;;24.13;;
9102;SDS011;4587;51.434;6.788;2023-11-18T00:30:36;43.07;;;23.93;;
9102;SDS011;4587;51.434;6.788;2023-11-18T00:33:02;38.10;;;24.67;;
9102;SDS011;4587;51.434;6.788;2023-11-18T00:35:28;41.60;;;24.77;;
9102;SDS011;4587;51.434;6.788;2023-11-18T00:37:56;38.23;;;22.73;;
9102;SDS011;4587;51.434;6.788;2023-11-18T00:40:25;39.47;;;24.07;;
9102;SDS011;4587;51.434;6.788;2023-11-18T00:42:51;38.90;;;24.07;;
9102;SDS011;4587;51.434;6.788;2023-11-18T00:45:16;38.87;;;22.70;;
9102;SDS011;4587;51.434;6.788;2023-11-18T00:47:43;41.53;;;24.40;;
9102;SDS011;4587;51.434;6.788;2023-11-18T00:50:09;41.03;;;22.33;;
9102;SDS011;4587;51.434;6.788;2023-11-18T00:52:35;41.93;;;23.13;;
9102;SDS011;4587;51.434;6.788;2023-11-18T00:55:03;39.57;;;22.87;;
9102;SDS011;4587;51.434;6.788;2023-11-18T00:57:31;37.20;;;22.10;;
9102;SDS011;4587;51.434;6.788;2023-11-18T00:59:57;38.30;;;21.53;;
9102;SDS011;4587;51.434;6.788;2023-11-18T01:02:23;42.17;;;22.30;;
9102;SDS011;4587;51.434;6.788;2023-11-18T01:04:49;40.23;;;23.13;;
9102;SDS011;4587;51.434;6.788;2023-11-18T01:07:15;37.00;;;22.00;;
9102;SDS011;4587;51.434;6.788;2023-11-18T01:09:41;39.27;;;23.33;;
9102;SDS011;4587;51.434;6.788;2023-11-18T01:12:06;38.03;;;23.67;;
9102;SDS011;4587;51.434;6.788;2023-11-18T01:14:35;40.17;;;22.70;;
9102;SDS011;4587;51.434;6.788;2023-11-18T01:17:02;35.50;;;22.03;;
9102;SDS011;4587;51.434;6.788;2023-11-18T01:19:29;40.40;;;22.50;;
9102;SDS011;4587;51.434;6.788;2023-11-18T01:21:54;36.93;;;22.50;;
9102;SDS011;4587;51.434;6.788;2023-11-18T01:24:20;39.30;;;22.77;;
9102;SDS011;4587;51.434;6.788;2023-11-18T01:26:46;37.47;;;22.00;;
9102;SDS011;4587;51.434;6.788;2023-11-18T01:29:12;39.60;;;22.33;;
9102;SDS011;4587;51.434;6.788;2023-11-18T01:31:38;37.30;;;22.90;;
9102;SDS011;4587;51.434;6.788;2023-11-18T01:34:06;37.27;;;22.30;;
9102;SDS011;4587;51.434;6.788;2023-11-18T01:36:32;35.93;;;21.40;;
9102;SDS011;4587;51.434;6.788;2023-11-18T01:38:59;36.13;;;21.97;;
9102;SDS011;4587;51.434;6.788;2023-11-18T01:41:25;37.27;;;22.33;;
9102;SDS011;4587;51.434;6.788;2023-11-18T01:43:50;37.80;;;21.63;;
9102;SDS011;4587;51.434;6.788;2023-11-18T01:46:16;36.53;;;22.20;;
9102;SDS011;4587;51.434;6.788;2023-11-18T01:48:43;36.97;;;22.73;;
9102;SDS011;4587;51.434;6.788;2023-11-18T01:51:09;37.33;;;22.13;;
9102;SDS011;4587;51.434;6.788;2023-11-18T01:53:36;40.00;;;22.97;;
9102;SDS011;4587;51.434;6.788;2023-11-18T01:56:03;38.03;;;22.40;;
9102;SDS011;4587;51.434;6.788;2023-11-18T01:58:30;33.70;;;20.90;;
9102;SDS011;4587;51.434;6.788;2023-11-18T02:01:00;35.30;;;21.47;;
9102;SDS011;4587;51.434;6.788;2023-11-18T02:03:27;36.97;;;21.23;;
9102;SDS011;4587;51.434;6.788;2023-11-18T02:05:53;38.47;;;23.27;;
9102;SDS011;4587;51.434;6.788;2023-11-18T02:08:19;39.33;;;22.23;;
9102;SDS011;4587;51.434;6.788;2023-11-18T02:13:21;36.07;;;20.77;;
9102;SDS011;4587;51.434;6.788;2023-11-18T02:15:54;32.73;;;20.80;;
9102;SDS011;4587;51.434;6.788;2023-11-18T02:18:24;35.67;;;21.73;;
9102;SDS011;4587;51.434;6.788;2023-11-18T02:20:51;32.60;;;21.63;;
9102;SDS011;4587;51.434;6.788;2023-11-18T02:23:22;31.63;;;20.47;;
9102;SDS011;4587;51.434;6.788;2023-11-18T02:25:48;34.57;;;20.73;;
9102;SDS011;4587;51.434;6.788;2023-11-18T02:28:14;30.80;;;20.60;;
9102;SDS011;4587;51.434;6.788;2023-11-18T02:30:40;36.30;;;20.73;;
9102;SDS011;4587;51.434;6.788;2023-11-18T02:33:11;32.27;;;20.53;;
9102;SDS011;4587;51.434;6.788;2023-11-18T02:38:22;28.53;;;19.23;;
9102;SDS011;4587;51.434;6.788;2023-11-18T02:40:52;29.27;;;19.80;;
9102;SDS011;4587;51.434;6.788;2023-11-18T02:43:22;29.93;;;20.27;;
9102;SDS011;4587;51.434;6.788;2023-11-18T02:45:49;26.87;;;19.33;;
9102;SDS011;4587;51.434;6.788;2023-11-18T02:48:16;29.03;;;20.43;;
9102;SDS011;4587;51.434;6.788;2023-11-18T02:50:43;28.10;;;19.37;;
9102;SDS011;4587;51.434;6.788;2023-11-18T02:53:08;31.47;;;20.20;;
9102;SDS011;4587;51.434;6.788;2023-11-18T02:55:34;29.67;;;20.03;;
9102;SDS011;4587;51.434;6.788;2023-11-18T02:58:00;30.17;;;20.00;;
9102;SDS011;4587;51.434;6.788;2023-11-18T03:00:27;31.67;;;19.77;;
9102;SDS011;4587;51.434;6.788;2023-11-18T03:02:53;26.53;;;19.10;;
9102;SDS011;4587;51.434;6.788;2023-11-18T03:05:20;28.90;;;19.40;;
9102;SDS011;4587;51.434;6.788;2023-11-18T03:07:49;28.07;;;19.57;;
9102;SDS011;4587;51.434;6.788;2023-11-18T03:10:21;28.20;;;19.60;;
9102;SDS011;4587;51.434;6.788;2023-11-18T03:12:50;26.73;;;18.60;;
9102;SDS011;4587;51.434;6.788;2023-11-18T03:15:17;27.80;;;18.50;;
9102;SDS011;4587;51.434;6.788;2023-11-18T03:17:43;27.03;;;18.33;;
9102;SDS011;4587;51.434;6.788;2023-11-18T03:20:10;25.93;;;18.23;;
9102;SDS011;4587;51.434;6.788;2023-11-18T03:22:39;27.00;;;19.00;;
9102;SDS011;4587;51.434;6.788;2023-11-18T03:25:05;27.97;;;18.70;;
9102;SDS011;4587;51.434;6.788;2023-11-18T03:27:32;24.13;;;18.43;;
9102;SDS011;4587;51.434;6.788;2023-11-18T03:29:58;25.47;;;17.70;;
9102;SDS011;4587;51.434;6.788;2023-11-18T03:32:24;26.37;;;18.60;;
9102;SDS011;4587;51.434;6.788;2023-11-18T03:34:49;26.43;;;18.23;;
9102;SDS011;4587;51.434;6.788;2023-11-18T03:37:15;24.40;;;17.83;;
9102;SDS011;4587;51.434;6.788;2023-11-18T03:39:40;24.20;;;17.93;;
9102;SDS011;4587;51.434;6.788;2023-11-18T03:42:06;26.90;;;18.00;;
9102;SDS011;4587;51.434;6.788;2023-11-18T03:44:31;24.70;;;17.90;;
9102;SDS011;4587;51.434;6.788;2023-11-18T03:46:57;23.40;;;18.13;;
9102;SDS011;4587;51.434;6.788;2023-11-18T03:49:23;26.07;;;18.13;;
9102;SDS011;4587;51.434;6.788;2023-11-18T03:51:48;28.10;;;19.13;;
9102;SDS011;4587;51.434;6.788;2023-11-18T03:54:14;25.40;;;17.77;;
9102;SDS011;4587;51.434;6.788;2023-11-18T03:56:39;23.07;;;17.20;;
9102;SDS011;4587;51.434;6.788;2023-11-18T03:59:05;24.07;;;18.03;;
9102;SDS011;4587;51.434;6.788;2023-11-18T04:01:30;23.23;;;16.90;;
9102;SDS011;4587;51.434;6.788;2023-11-18T04:03:57;25.60;;;18.00;;
9102;SDS011;4587;51.434;6.788;2023-11-18T04:06:23;25.87;;;17.83;;
9102;SDS011;4587;51.434;6.788;2023-11-18T04:08:49;26.77;;;18.90;;
9102;SDS011;4587;51.434;6.788;2023-11-18T04:11:15;25.17;;;17.77;;
9102;SDS011;4587;51.434;6.788;2023-11-18T04:13:42;26.07;;;18.63;;
9102;SDS011;4587;51.434;6.788;2023-11-18T04:16:11;26.53;;;18.70;;
9102;SDS011;4587;51.434;6.788;2023-11-18T04:18:41;26.63;;;18.33;;
9102;SDS011;4587;51.434;6.788;2023-11-18T04:21:08;25.30;;;18.07;;
9102;SDS011;4587;51.434;6.788;2023-11-18T04:23:40;24.50;;;17.93;;
9102;SDS011;4587;51.434;6.788;2023-11-18T04:26:07;24.43;;;18.20;;
9102;SDS011;4587;51.434;6.788;2023-11-18T04:28:34;24.03;;;17.77;;
9102;SDS011;4587;51.434;6.788;2023-11-18T04:31:00;24.20;;;17.60;;
9102;SDS011;4587;51.434;6.788;2023-11-18T04:33:26;24.00;;;17.60;;
9102;SDS011;4587;51.434;6.788;2023-11-18T04:35:52;25.90;;;18.33;;
9102;SDS011;4587;51.434;6.788;2023-11-18T04:38:18;23.27;;;17.50;;
9102;SDS011;4587;51.434;6.788;2023-11-18T04:40:44;22.90;;;17.20;;
9102;SDS011;4587;51.434;6.788;2023-11-18T04:43:11;24.57;;;16.47;;
9102;SDS011;4587;51.434;6.788;2023-11-18T04:45:40;23.80;;;17.00;;
9102;SDS011;4587;51.434;6.788;2023-11-18T04:48:08;24.90;;;17.30;;
9102;SDS011;4587;51.434;6.788;2023-11-18T04:50:34;23.00;;;16.47;;
9102;SDS011;4587;51.434;6.788;2023-11-18T04:52:59;23.60;;;16.87;;
9102;SDS011;4587;51.434;6.788;2023-11-18T04:55:25;22.00;;;17.10;;
9102;SDS011;4587;51.434;6.788;2023-11-18T04:57:51;26.50;;;17.63;;
9102;SDS011;4587;51.434;6.788;2023-11-18T05:00:17;22.67;;;16.60;;
9102;SDS011;4587;51.434;6.788;2023-11-18T05:02:44;22.87;;;16.70;;
9102;SDS011;4587;51.434;6.788;2023-11-18T05:05:12;24.17;;;16.83;;
9102;SDS011;4587;51.434;6.788;2023-11-18T05:07:41;24.13;;;17.27;;
9102;SDS011;4587;51.434;6.788;2023-11-18T05:10:07;22.83;;;16.60;;
9102;SDS011;4587;51.434;6.788;2023-11-18T05:12:34;22.30;;;16.73;;
9102;SDS011;4587;51.434;6.788;2023-11-18T05:15:01;24.03;;;17.37;;
9102;SDS011;4587;51.434;6.788;2023-11-18T05:17:29;22.90;;;16.97;;
9102;SDS011;4587;51.434;6.788;2023-11-18T05:19:55;24.80;;;17.93;;
9102;SDS011;4587;51.434;6.788;2023-11-18T05:22:20;24.90;;;16.90;;
9102;SDS011;4587;51.434;6.788;2023-11-18T05:24:46;22.47;;;16.30;;
9102;SDS011;4587;51.434;6.788;2023-11-18T05:27:13;22.47;;;16.10;;
9102;SDS011;4587;51.434;6.788;2023-11-18T05:29:38;25.53;;;16.80;;
9102;SDS011;4587;51.434;6.788;2023-11-18T05:32:06;22.37;;;15.80;;
9102;SDS011;4587;51.434;6.788;2023-11-18T05:34:32;23.23;;;17.03;;
9102;SDS011;4587;51.434;6.788;2023-11-18T05:37:00;22.33;;;16.97;;
9102;SDS011;4587;51.434;6.788;2023-11-18T05:39:26;23.27;;;17.57;;
9102;SDS011;4587;51.434;6.788;2023-11-18T05:41:55;25.67;;;17.97;;
9102;SDS011;4587;51.434;6.788;2023-11-18T05:44:24;22.87;;;16.50;;
9102;SDS011;4587;51.434;6.788;2023-11-18T05:46:56;24.00;;;16.60;;
9102;SDS011;4587;51.434;6.788;2023-11-18T05:49:22;23.40;;;16.77;;
9102;SDS011;4587;51.434;6.788;2023-11-18T05:51:49;21.77;;;16.53;;
9102;SDS011;4587;51.434;6.788;2023-11-18T05:54:15;23.73;;;17.73;;
9102;SDS011;4587;51.434;6.788;2023-11-18T05:56:41;23.17;;;17.27;;
9102;SDS011;4587;51.434;6.788;2023-11-18T05:59:06;23.00;;;17.10;;
9102;SDS011;4587;51.434;6.788;2023-11-18T06:01:33;22.33;;;16.83;;
9102;SDS011;4587;51.434;6.788;2023-11-18T06:03:59;25.03;;;17.13;;
9102;SDS011;4587;51.434;6.788;2023-11-18T06:06:25;22.90;;;16.40;;
9102;SDS011;4587;51.434;6.788;2023-11-18T06:08:52;22.93;;;16.63;;
9102;SDS011;4587;51.434;6.788;2023-11-18T06:11:18;24.43;;;17.23;;
9102;SDS011;4587;51.434;6.788;2023-11-18T06:13:45;21.60;;;16.47;;
9102;SDS011;4587;51.434;6.788;2023-11-18T06:18:48;23.43;;;17.50;;
9102;SDS011;4587;51.434;6.788;2023-11-18T06:21:15;23.13;;;16.47;;
9102;SDS011;4587;51.434;6.788;2023-11-18T06:23:45;22.50;;;16.23;;
9102;SDS011;4587;51.434;6.788;2023-11-18T06:26:12;21.87;;;16.37;;
9102;SDS011;4587;51.434;6.788;2023-11-18T06:28:39;22.87;;;16.87;;
9102;SDS011;4587;51.434;6.788;2023-11-18T06:31:06;23.73;;;16.93;;
9102;SDS011;4587;51.434;6.788;2023-11-18T06:33:40;22.47;;;16.70;;
9102;SDS011;4587;51.434;6.788;2023-11-18T06:36:16;22.47;;;16.90;;
9102;SDS011;4587;51.434;6.788;2023-11-18T06:38:43;22.60;;;16.90;;
9102;SDS011;4587;51.434;6.788;2023-11-18T06:41:09;24.53;;;17.73;;
9102;SDS011;4587;51.434;6.788;2023-11-18T06:43:37;23.27;;;17.53;;
9102;SDS011;4587;51.434;6.788;2023-11-18T06:48:51;21.97;;;16.93;;
9102;SDS011;4587;51.434;6.788;2023-11-18T06:51:22;24.60;;;16.50;;
9102;SDS011;4587;51.434;6.788;2023-11-18T06:53:49;24.20;;;16.33;;
9102;SDS011;4587;51.434;6.788;2023-11-18T06:56:16;23.37;;;16.50;;
9102;SDS011;4587;51.434;6.788;2023-11-18T06:58:42;20.13;;;15.37;;
9102;SDS011;4587;51.434;6.788;2023-11-18T07:01:08;23.63;;;17.53;;
9102;SDS011;4587;51.434;6.788;2023-11-18T07:03:43;25.17;;;17.20;;
9102;SDS011;4587;51.434;6.788;2023-11-18T07:06:10;21.13;;;16.27;;
9102;SDS011;4587;51.434;6.788;2023-11-18T07:08:36;22.77;;;16.50;;
9102;SDS011;4587;51.434;6.788;2023-11-18T07:11:02;23.57;;;16.67;;
9102;SDS011;4587;51.434;6.788;2023-11-18T07:13:28;20.50;;;15.87;;
9102;SDS011;4587;51.434;6.788;2023-11-18T07:15:54;22.57;;;16.27;;
9102;SDS011;4587;51.434;6.788;2023-11-18T07:18:21;25.20;;;16.73;;
9102;SDS011;4587;51.434;6.788;2023-11-18T07:20:50;21.17;;;16.27;;
9102;SDS011;4587;51.434;6.788;2023-11-18T07:23:17;21.87;;;16.17;;
9102;SDS011;4587;51.434;6.788;2023-11-18T07:25:43;21.37;;;16.13;;
9102;SDS011;4587;51.434;6.788;2023-11-18T07:28:10;21.10;;;15.40;;
9102;SDS011;4587;51.434;6.788;2023-11-18T07:30:36;21.40;;;15.37;;
9102;SDS011;4587;51.434;6.788;2023-11-18T07:33:02;23.60;;;16.13;;
9102;SDS011;4587;51.434;6.788;2023-11-18T07:35:28;18.20;;;14.97;;
9102;SDS011;4587;51.434;6.788;2023-11-18T07:37:54;20.90;;;15.47;;
9102;SDS011;4587;51.434;6.788;2023-11-18T07:40:21;21.97;;;15.07;;
9102;SDS011;4587;51.434;6.788;2023-11-18T07:42:52;21.27;;;16.50;;
9102;SDS011;4587;51.434;6.788;2023-11-18T07:45:20;21.67;;;15.43;;
9102;SDS011;4587;51.434;6.788;2023-11-18T07:47:48;20.53;;;15.70;;
9102;SDS011;4587;51.434;6.788;2023-11-18T07:50:16;18.90;;;14.60;;
9102;SDS011;4587;51.434;6.788;2023-11-18T07:52:42;21.30;;;15.47;;
9102;SDS011;4587;51.434;6.788;2023-11-18T07:55:08;19.37;;;15.03;;
9102;SDS011;4587;51.434;6.788;2023-11-18T07:57:36;20.50;;;14.93;;
9102;SDS011;4587;51.434;6.788;2023-11-18T08:00:01;19.90;;;14.87;;
9102;SDS011;4587;51.434;6.788;2023-11-18T08:02:34;19.23;;;14.13;;
9102;SDS011;4587;51.434;6.788;2023-11-18T08:05:03;19.10;;;14.23;;
9102;SDS011;4587;51.434;6.788;2023-11-18T08:07:32;19.50;;;14.37;;
9102;SDS011;4587;51.434;6.788;2023-11-18T08:10:01;17.90;;;14.57;;
9102;SDS011;4587;51.434;6.788;2023-11-18T08:12:29;21.30;;;14.17;;
9102;SDS011;4587;51.434;6.788;2023-11-18T08:14:55;19.53;;;13.90;;
9102;SDS011;4587;51.434;6.788;2023-11-18T08:17:22;17.77;;;13.57;;
9102;SDS011;4587;51.434;6.788;2023-11-18T08:19:47;20.50;;;14.33;;
9102;SDS011;4587;51.434;6.788;2023-11-18T08:22:14;17.00;;;13.57;;
9102;SDS011;4587;51.434;6.788;2023-11-18T08:24:43;18.43;;;13.20;;
9102;SDS011;4587;51.434;6.788;2023-11-18T08:27:09;19.23;;;13.03;;
9102;SDS011;4587;51.434;6.788;2023-11-18T08:29:36;17.30;;;13.13;;
9102;SDS011;4587;51.434;6.788;2023-11-18T08:32:03;18.70;;;13.53;;
9102;SDS011;4587;51.434;6.788;2023-11-18T08:34:29;17.37;;;12.87;;
9102;SDS011;4587;51.434;6.788;2023-11-18T08:36:55;15.93;;;12.70;;
9102;SDS011;4587;51.434;6.788;2023-11-18T08:39:21;15.53;;;12.83;;
9102;SDS011;4587;51.434;6.788;2023-11-18T08:41:50;16.80;;;12.30;;
9102;SDS011;4587;51.434;6.788;2023-11-18T08:44:16;17.27;;;12.40;;
9102;SDS011;4587;51.434;6.788;2023-11-18T08:46:42;18.87;;;12.17;;
9102;SDS011;4587;51.434;6.788;2023-11-18T08:49:08;16.43;;;12.07;;
9102;SDS011;4587;51.434;6.788;2023-11-18T08:51:39;19.40;;;13.27;;
9102;SDS011;4587;51.434;6.788;2023-11-18T08:54:07;16.47;;;12.23;;
9102;SDS011;4587;51.434;6.788;2023-11-18T08:56:50;16.70;;;12.17;;
9102;SDS011;4587;51.434;6.788;2023-11-18T08:59:19;15.10;;;11.70;;
9102;SDS011;4587;51.434;6.788;2023-11-18T09:01:56;17.80;;;11.90;;
9102;SDS011;4587;51.434;6.788;2023-11-18T09:04:24;15.03;;;11.47;;
9102;SDS011;4587;51.434;6.788;2023-11-18T09:06:50;13.17;;;10.70;;
9102;SDS011;4587;51.434;6.788;2023-11-18T09:09:22;14.60;;;11.20;;
9102;SDS011;4587;51.434;6.788;2023-11-18T09:11:55;14.83;;;10.97;;
9102;SDS011;4587;51.434;6.788;2023-11-18T09:14:22;15.50;;;11.00;;
9102;SDS011;4587;51.434;6.788;2023-11-18T09:16:49;12.90;;;10.40;;
9102;SDS011;4587;51.434;6.788;2023-11-18T09:19:15;12.40;;;9.57;;
9102;SDS011;4587;51.434;6.788;2023-11-18T09:21:42;15.20;;;10.33;;
9102;SDS011;4587;51.434;6.788;2023-11-18T09:24:09;13.23;;;9.50;;
9102;SDS011;4587;51.434;6.788;2023-11-18T09:26:37;14.60;;;10.30;;
9102;SDS011;4587;51.434;6.788;2023-11-18T09:29:04;12.03;;;8.93;;
9102;SDS011;4587;51.434;6.788;2023-11-18T09:31:33;13.10;;;9.03;;
9102;SDS011;4587;51.434;6.788;2023-11-18T09:34:02;12.47;;;9.00;;
9102;SDS011;4587;51.434;6.788;2023-11-18T09:36:32;11.40;;;8.70;;
9102;SDS011;4587;51.434;6.788;2023-11-18T09:38:58;11.97;;;8.57;;
9102;SDS011;4587;51.434;6.788;2023-11-18T09:41:24;9.23;;;7.87;;
9102;SDS011;4587;51.434;6.788;2023-11-18T09:43:52;11.17;;;8.27;;
9102;SDS011;4587;51.434;6.788;2023-11-18T09:46:22;11.13;;;8.30;;
9102;SDS011;4587;51.434;6.788;2023-11-18T09:48:52;14.60;;;8.00;;
9102;SDS011;4587;51.434;6.788;2023-11-18T09:51:42;12.53;;;7.83;;
9102;SDS011;4587;51.434;6.788;2023-11-18T09:54:17;12.47;;;8.07;;
9102;SDS011;4587;51.434;6.788;2023-11-18T10:00:05;9.27;;;7.73;;
9102;SDS011;4587;51.434;6.788;2023-11-18T10:02:49;11.20;;;7.70;;
9102;SDS011;4587;51.434;6.788;2023-11-18T10:05:15;10.50;;;7.73;;
9102;SDS011;4587;51.434;6.788;2023-11-18T10:07:45;9.93;;;7.07;;
9102;SDS011;4587;51.434;6.788;2023-11-18T10:10:12;11.83;;;7.50;;
9102;SDS011;4587;51.434;6.788;2023-11-18T10:12:44;9.30;;;7.17;;
9102;SDS011;4587;51.434;6.788;2023-11-18T10:15:17;9.93;;;7.30;;
9102;SDS011;4587;51.434;6.788;2023-11-18T10:17:44;8.07;;;7.10;;
9102;SDS011;4587;51.434;6.788;2023-11-18T10:23:10;10.53;;;6.80;;
9102;SDS011;4587;51.434;6.788;2023-11-18T10:25:45;8.97;;;7.47;;
9102;SDS011;4587;51.434;6.788;2023-11-18T10:28:32;9.70;;;7.37;;
9102;SDS011;4587;51.434;6.788;2023-11-18T10:31:00;10.13;;;7.37;;
9102;SDS011;4587;51.434;6.788;2023-11-18T10:33:28;7.70;;;6.53;;
9102;SDS011;4587;51.434;6.788;2023-11-18T10:36:01;10.07;;;7.67;;
9102;SDS011;4587;51.434;6.788;2023-11-18T10:38:32;10.33;;;7.00;;
9102;SDS011;4587;51.434;6.788;2023-11-18T10:41:14;9.50;;;6.80;;
9102;SDS011;4587;51.434;6.788;2023-11-18T10:43:41;8.97;;;6.50;;
9102;SDS011;4587;51.434;6.788;2023-11-18T10:46:10;10.90;;;7.57;;
9102;SDS011;4587;51.434;6.788;2023-11-18T10:48:40;9.97;;;7.43;;
9102;SDS011;4587;51.434;6.788;2023-11-18T10:51:09;11.13;;;6.53;;
9102;SDS011;4587;51.434;6.788;2023-11-18T10:53:42;9.10;;;6.70;;
9102;SDS011;4587;51.434;6.788;2023-11-18T10:56:18;10.10;;;6.50;;
9102;SDS011;4587;51.434;6.788;2023-11-18T10:58:57;9.27;;;6.53;;
9102;SDS011;4587;51.434;6.788;2023-11-18T11:01:33;9.50;;;6.03;;
9102;SDS011;4587;51.434;6.788;2023-11-18T11:04:04;7.37;;;6.57;;
9102;SDS011;4587;51.434;6.788;2023-11-18T11:06:31;9.13;;;6.33;;
9102;SDS011;4587;51.434;6.788;2023-11-18T11:08:58;7.53;;;6.20;;
9102;SDS011;4587;51.434;6.788;2023-11-18T11:11:24;7.83;;;5.80;;
9102;SDS011;4587;51.434;6.788;2023-11-18T11:13:59;10.67;;;6.20;;
9102;SDS011;4587;51.434;6.788;2023-11-18T11:16:32;7.80;;;5.87;;
9102;SDS011;4587;51.434;6.788;2023-11-18T11:19:13;8.60;;;6.17;;
9102;SDS011;4587;51.434;6.788;2023-11-18T11:22:04;11.33;;;6.60;;
9102;SDS011;4587;51.434;6.788;2023-11-18T11:27:55;9.77;;;6.47;;
9102;SDS011;4587;51.434;6.788;2023-11-18T11:30:44;7.23;;;5.83;;
9102;SDS011;4587;51.434;6.788;2023-11-18T11:33:17;8.27;;;6.57;;
9102;SDS011;4587;51.434;6.788;2023-11-18T11:35:54;7.60;;;6.70;;
9102;SDS011;4587;51.434;6.788;2023-11-18T11:38:24;8.47;;;6.43;;
9102;SDS011;4587;51.434;6.788;2023-11-18T11:40:51;10.27;;;6.67;;
9102;SDS011;4587;51.434;6.788;2023-11-18T11:43:19;8.97;;;6.70;;
9102;SDS011;4587;51.434;6.788;2023-11-18T11:45:53;8.90;;;6.63;;
9102;SDS011;4587;51.434;6.788;2023-11-18T11:48:20;8.53;;;6.40;;
9102;SDS011;4587;51.434;6.788;2023-11-18T11:53:26;11.03;;;6.40;;
9102;SDS011;4587;51.434;6.788;2023-11-18T11:55:58;9.93;;;6.33;;
9102;SDS011;4587;51.434;6.788;2023-11-18T11:58:31;9.00;;;6.93;;
9102;SDS011;4587;51.434;6.788;2023-11-18T12:00:59;7.70;;;6.60;;
9102;SDS011;4587;51.434;6.788;2023-11-18T12:03:33;11.20;;;7.20;;
9102;SDS011;4587;51.434;6.788;2023-11-18T12:06:08;8.20;;;6.50;;
9102;SDS011;4587;51.434;6.788;2023-11-18T12:08:37;8.83;;;6.70;;
9102;SDS011;4587;51.434;6.788;2023-11-18T12:11:04;10.97;;;6.90;;
9102;SDS011;4587;51.434;6.788;2023-11-18T12:13:34;10.20;;;6.80;;
9102;SDS011;4587;51.434;6.788;2023-11-18T12:16:04;9.23;;;7.20;;
9102;SDS011;4587;51.434;6.788;2023-11-18T12:18:30;9.50;;;7.43;;
9102;SDS011;4587;51.434;6.788;2023-11-18T12:21:01;11.80;;;7.50;;
9102;SDS011;4587;51.434;6.788;2023-11-18T12:23:28;13.47;;;7.20;;
9102;SDS011;4587;51.434;6.788;2023-11-18T12:25:55;8.97;;;7.33;;
9102;SDS011;4587;51.434;6.788;2023-11-18T12:28:32;8.33;;;6.43;;
9102;SDS011;4587;51.434;6.788;2023-11-18T12:31:02;10.83;;;6.93;;
9102;SDS011;4587;51.434;6.788;2023-11-18T12:39:19;7.70;;;6.57;;
9102;SDS011;4587;51.434;6.788;2023-11-18T12:42:03;10.40;;;7.20;;
9102;SDS011;4587;51.434;6.788;2023-11-18T12:44:33;12.50;;;7.37;;
9102;SDS011;4587;51.434;6.788;2023-11-18T12:47:04;11.83;;;6.97;;
9102;SDS011;4587;51.434;6.788;2023-11-18T12:49:39;11.33;;;7.20;;
9102;SDS011;4587;51.434;6.788;2023-11-18T12:52:07;9.73;;;7.20;;
9102;SDS011;4587;51.434;6.788;2023-11-18T12:54:39;10.30;;;6.63;;
9102;SDS011;4587;51.434;6.788;2023-11-18T12:57:12;9.10;;;6.47;;
9102;SDS011;4587;51.434;6.788;2023-11-18T12:59:39;10.63;;;6.27;;
9102;SDS011;4587;51.434;6.788;2023-11-18T13:02:08;8.93;;;6.60;;
9102;SDS011;4587;51.434;6.788;2023-11-18T13:04:39;9.80;;;6.40;;
9102;SDS011;4587;51.434;6.788;2023-11-18T13:07:05;9.13;;;6.10;;
9102;SDS011;4587;51.434;6.788;2023-11-18T13:09:33;12.43;;;6.50;;
9102;SDS011;4587;51.434;6.788;2023-11-18T13:12:02;8.33;;;5.80;;
9102;SDS011;4587;51.434;6.788;2023-11-18T13:14:34;8.37;;;5.60;;
9102;SDS011;4587;51.434;6.788;2023-11-18T13:17:05;11.30;;;5.90;;
9102;SDS011;4587;51.434;6.788;2023-11-18T13:19:36;8.30;;;5.30;;
9102;SDS011;4587;51.434;6.788;2023-11-18T13:22:02;8.37;;;5.53;;
9102;SDS011;4587;51.434;6.788;2023-11-18T13:24:32;10.20;;;5.83;;
9102;SDS011;4587;51.434;6.788;2023-11-18T13:26:58;8.03;;;5.40;;
9102;SDS011;4587;51.434;6.788;2023-11-18T13:29:28;8.03;;;5.53;;
9102;SDS011;4587;51.434;6.788;2023-11-18T13:31:54;8.17;;;5.50;;
9102;SDS011;4587;51.434;6.788;2023-11-18T13:34:23;9.23;;;4.87;;
9102;SDS011;4587;51.434;6.788;2023-11-18T13:36:52;8.43;;;4.90;;
9102;SDS011;4587;51.434;6.788;2023-11-18T13:39:19;6.77;;;4.67;;
9102;SDS011;4587;51.434;6.788;2023-11-18T13:41:49;6.77;;;4.70;;
9102;SDS011;4587;51.434;6.788;2023-11-18T13:47:00;6.83;;;4.53;;
9102;SDS011;4587;51.434;6.788;2023-11-18T13:49:28;7.50;;;4.77;;
9102;SDS011;4587;51.434;6.788;2023-11-18T13:51:54;8.10;;;3.90;;
9102;SDS011;4587;51.434;6.788;2023-11-18T13:54:21;6.50;;;3.97;;
9102;SDS011;4587;51.434;6.788;2023-11-18T13:56:47;7.93;;;3.87;;
9102;SDS011;4587;51.434;6.788;2023-11-18T13:59:14;5.87;;;3.87;;
9102;SDS011;4587;51.434;6.788;2023-11-18T14:01:40;6.47;;;4.10;;
9102;SDS011;4587;51.434;6.788;2023-11-18T14:04:06;7.33;;;3.73;;
9102;SDS011;4587;51.434;6.788;2023-11-18T14:06:33;6.17;;;3.57;;
9102;SDS011;4587;51.434;6.788;2023-11-18T14:09:00;7.77;;;3.37;;
9102;SDS011;4587;51.434;6.788;2023-11-18T14:11:26;5.10;;;3.27;;
9102;SDS011;4587;51.434;6.788;2023-11-18T14:13:51;5.70;;;3.20;;
9102;SDS011;4587;51.434;6.788;2023-11-18T14:16:18;6.57;;;3.07;;
9102;SDS011;4587;51.434;6.788;2023-11-18T14:18:46;5.73;;;3.10;;
9102;SDS011;4587;51.434;6.788;2023-11-18T14:21:13;6.17;;;2.87;;
9102;SDS011;4587;51.434;6.788;2023-11-18T14:23:39;6.57;;;3.07;;
9102;SDS011;4587;51.434;6.788;2023-11-18T14:26:08;4.77;;;2.70;;
9102;SDS011;4587;51.434;6.788;2023-11-18T14:28:33;5.40;;;2.87;;
9102;SDS011;4587;51.434;6.788;2023-11-18T14:31:00;6.40;;;2.73;;
9102;SDS011;4587;51.434;6.788;2023-11-18T14:33:29;5.90;;;3.07;;
9102;SDS011;4587;51.434;6.788;2023-11-18T14:35:58;6.13;;;2.63;;
9102;SDS011;4587;51.434;6.788;2023-11-18T14:38:25;7.70;;;2.90;;
9102;SDS011;4587;51.434;6.788;2023-11-18T14:40:51;7.47;;;2.90;;
9102;SDS011;4587;51.434;6.788;2023-11-18T14:43:18;4.47;;;2.70;;
9102;SDS011;4587;51.434;6.788;2023-11-18T14:45:44;7.23;;;2.93;;
9102;SDS011;4587;51.434;6.788;2023-11-18T14:48:09;7.20;;;2.83;;
9102;SDS011;4587;51.434;6.788;2023-11-18T14:50:35;6.53;;;2.90;;
9102;SDS011;4587;51.434;6.788;2023-11-18T14:53:01;6.30;;;2.70;;
9102;SDS011;4587;51.434;6.788;2023-11-18T14:55:28;7.63;;;3.03;;
9102;SDS011;4587;51.434;6.788;2023-11-18T14:57:55;9.10;;;3.20;;
9102;SDS011;4587;51.434;6.788;2023-11-18T15:00:21;8.23;;;2.90;;
9102;SDS011;4587;51.434;6.788;2023-11-18T15:02:49;4.90;;;2.90;;
9102;SDS011;4587;51.434;6.788;2023-11-18T15:05:16;5.70;;;3.13;;
9102;SDS011;4587;51.434;6.788;2023-11-18T15:07:44;6.77;;;3.23;;
9102;SDS011;4587;51.434;6.788;2023-11-18T15:10:10;4.93;;;3.50;;
9102;SDS011;4587;51.434;6.788;2023-11-18T15:12:38;5.20;;;3.20;;
9102;SDS011;4587;51.434;6.788;2023-11-18T15:15:06;6.03;;;3.23;;
9102;SDS011;4587;51.434;6.788;2023-11-18T15:17:32;7.37;;;4.20;;
9102;SDS011;4587;51.434;6.788;2023-11-18T15:19:59;5.27;;;3.30;;
9102;SDS011;4587;51.434;6.788;2023-11-18T15:22:25;6.10;;;3.63;;
9102;SDS011;4587;51.434;6.788;2023-11-18T15:24:52;5.73;;;3.43;;
9102;SDS011;4587;51.434;6.788;2023-11-18T15:27:17;5.73;;;3.40;;
9102;SDS011;4587;51.434;6.788;2023-11-18T15:29:44;6.63;;;4.03;;
9102;SDS011;4587;51.434;6.788;2023-11-18T15:32:15;5.17;;;3.20;;
9102;SDS011;4587;51.434;6.788;2023-11-18T15:34:42;5.63;;;3.77;;